sensor_id;sensor_type;location;lat;lon;timestamp;temperature;humidity
16966;DHT22;8599;47.852;12.070;2022-07-04T00:01:22;21.80;99.90
16966;DHT22;8599;47.852;12.070;2022-07-04T00:03:48;21.70;99.90
16966;DHT22;8599;47.852;12.070;2022-07-04T00:06:15;21.60;99.90
16966;DHT22;8599;47.852;12.070;2022-07-04T00:08:42;21.50;99.90
16966;DHT22;8599;47.852;12.070;2022-07-04T00:11:09;21.40;99.90
16966;DHT22;8599;47.852;12.070;2022-07-04T00:13:37;21.60;99.90
16966;DHT22;8599;47.852;12.070;2022-07-04T00:16:04;21.40;99.90
16966;DHT22;8599;47.852;12.070;2022-07-04T00:18:31;21.50;99.90
16966;DHT22;8599;47.852;12.070;2022-07-04T00:20:58;21.60;99.90
16966;DHT22;8599;47.852;12.070;2022-07-04T00:23:25;21.60;99.90
16966;DHT22;8599;47.852;12.070;2022-07-04T00:25:51;21.60;99.90
16966;DHT22;8599;47.852;12.070;2022-07-04T00:28:18;21.60;99.90
16966;DHT22;8599;47.852;12.070;2022-07-04T00:30:47;21.70;99.90
16966;DHT22;8599;47.852;12.070;2022-07-04T00:33:14;21.80;99.90
16966;DHT22;8599;47.852;12.070;2022-07-04T00:35:41;21.90;99.90
16966;DHT22;8599;47.852;12.070;2022-07-04T00:38:08;22.00;99.90
16966;DHT22;8599;47.852;12.070;2022-07-04T00:40:35;22.10;99.90
16966;DHT22;8599;47.852;12.070;2022-07-04T00:43:02;22.10;99.90
16966;DHT22;8599;47.852;12.070;2022-07-04T00:45:29;22.10;99.90
16966;DHT22;8599;47.852;12.070;2022-07-04T00:47:57;22.10;99.90
16966;DHT22;8599;47.852;12.070;2022-07-04T00:50:25;22.00;99.90
16966;DHT22;8599;47.852;12.070;2022-07-04T00:52:52;21.90;99.90
16966;DHT22;8599;47.852;12.070;2022-07-04T00:55:20;21.90;99.90
16966;DHT22;8599;47.852;12.070;2022-07-04T00:57:47;22.10;99.90
16966;DHT22;8599;47.852;12.070;2022-07-04T01:00:16;22.10;99.90
16966;DHT22;8599;47.852;12.070;2022-07-04T01:02:43;22.10;99.90
16966;DHT22;8599;47.852;12.070;2022-07-04T01:05:12;22.00;99.90
16966;DHT22;8599;47.852;12.070;2022-07-04T01:07:40;21.70;99.90
16966;DHT22;8599;47.852;12.070;2022-07-04T01:10:07;21.70;99.90
16966;DHT22;8599;47.852;12.070;2022-07-04T01:12:35;21.50;99.90
16966;DHT22;8599;47.852;12.070;2022-07-04T01:15:03;21.50;99.90
16966;DHT22;8599;47.852;12.070;2022-07-04T01:17:30;21.50;99.90
16966;DHT22;8599;47.852;12.070;2022-07-04T01:19:57;21.40;99.90
16966;DHT22;8599;47.852;12.070;2022-07-04T01:22:25;21.20;99.90
16966;DHT22;8599;47.852;12.070;2022-07-04T01:24:52;21.40;99.90
16966;DHT22;8599;47.852;12.070;2022-07-04T01:27:19;21.40;99.90
16966;DHT22;8599;47.852;12.070;2022-07-04T01:29:46;21.40;99.90
16966;DHT22;8599;47.852;12.070;2022-07-04T01:32:13;21.40;99.90
16966;DHT22;8599;47.852;12.070;2022-07-04T01:34:40;21.40;99.90
16966;DHT22;8599;47.852;12.070;2022-07-04T01:37:07;21.40;99.90
16966;DHT22;8599;47.852;12.070;2022-07-04T01:39:35;21.50;99.90
16966;DHT22;8599;47.852;12.070;2022-07-04T01:42:03;21.50;99.90
16966;DHT22;8599;47.852;12.070;2022-07-04T01:44:30;21.60;99.90
16966;DHT22;8599;47.852;12.070;2022-07-04T01:46:58;21.60;99.90
16966;DHT22;8599;47.852;12.070;2022-07-04T01:49:25;21.60;99.90
16966;DHT22;8599;47.852;12.070;2022-07-04T01:51:52;21.60;99.90
16966;DHT22;8599;47.852;12.070;2022-07-04T01:54:20;21.40;99.90
16966;DHT22;8599;47.852;12.070;2022-07-04T01:56:48;21.50;99.90
16966;DHT22;8599;47.852;12.070;2022-07-04T01:59:15;21.50;99.90
16966;DHT22;8599;47.852;12.070;2022-07-04T02:01:42;21.30;99.90
16966;DHT22;8599;47.852;12.070;2022-07-04T02:04:08;21.20;99.90
16966;DHT22;8599;47.852;12.070;2022-07-04T02:06:35;21.20;99.90
16966;DHT22;8599;47.852;12.070;2022-07-04T02:09:02;21.20;99.90
16966;DHT22;8599;47.852;12.070;2022-07-04T02:11:42;21.20;99.90
16966;DHT22;8599;47.852;12.070;2022-07-04T02:14:28;21.00;99.90
16966;DHT22;8599;47.852;12.070;2022-07-04T02:16:55;20.90;99.90
16966;DHT22;8599;47.852;12.070;2022-07-04T02:19:22;20.90;99.90
16966;DHT22;8599;47.852;12.070;2022-07-04T02:21:49;20.90;99.90
16966;DHT22;8599;47.852;12.070;2022-07-04T02:24:17;20.90;99.90
16966;DHT22;8599;47.852;12.070;2022-07-04T02:26:44;20.90;99.90
16966;DHT22;8599;47.852;12.070;2022-07-04T02:29:11;20.80;99.90
16966;DHT22;8599;47.852;12.070;2022-07-04T02:31:39;20.60;99.90
16966;DHT22;8599;47.852;12.070;2022-07-04T02:34:06;20.60;99.90
16966;DHT22;8599;47.852;12.070;2022-07-04T02:36:33;20.60;99.90
16966;DHT22;8599;47.852;12.070;2022-07-04T02:39:00;20.50;99.90
16966;DHT22;8599;47.852;12.070;2022-07-04T02:41:27;20.40;99.90
16966;DHT22;8599;47.852;12.070;2022-07-04T02:43:54;20.40;99.90
16966;DHT22;8599;47.852;12.070;2022-07-04T02:46:27;20.40;99.90
16966;DHT22;8599;47.852;12.070;2022-07-04T02:48:55;20.40;99.90
16966;DHT22;8599;47.852;12.070;2022-07-04T02:51:22;20.50;99.90
16966;DHT22;8599;47.852;12.070;2022-07-04T02:53:49;20.50;99.90
16966;DHT22;8599;47.852;12.070;2022-07-04T02:56:16;20.40;99.90
16966;DHT22;8599;47.852;12.070;2022-07-04T02:58:43;20.30;99.90
16966;DHT22;8599;47.852;12.070;2022-07-04T03:01:10;20.40;99.90
16966;DHT22;8599;47.852;12.070;2022-07-04T03:03:38;20.50;99.90
16966;DHT22;8599;47.852;12.070;2022-07-04T03:06:06;20.40;99.90
16966;DHT22;8599;47.852;12.070;2022-07-04T03:08:33;20.50;99.90
16966;DHT22;8599;47.852;12.070;2022-07-04T03:11:00;20.40;99.90
16966;DHT22;8599;47.852;12.070;2022-07-04T03:13:27;20.30;99.90
16966;DHT22;8599;47.852;12.070;2022-07-04T03:15:54;20.30;99.90
16966;DHT22;8599;47.852;12.070;2022-07-04T03:18:21;20.30;99.90
16966;DHT22;8599;47.852;12.070;2022-07-04T03:20:48;20.20;99.90
16966;DHT22;8599;47.852;12.070;2022-07-04T03:23:16;20.20;99.90
16966;DHT22;8599;47.852;12.070;2022-07-04T03:25:43;20.20;99.90
16966;DHT22;8599;47.852;12.070;2022-07-04T03:28:10;20.20;99.90
16966;DHT22;8599;47.852;12.070;2022-07-04T03:30:37;20.10;99.90
16966;DHT22;8599;47.852;12.070;2022-07-04T03:33:04;20.20;99.90
16966;DHT22;8599;47.852;12.070;2022-07-04T03:35:31;20.30;99.90
16966;DHT22;8599;47.852;12.070;2022-07-04T03:37:58;20.30;99.90
16966;DHT22;8599;47.852;12.070;2022-07-04T03:40:26;20.40;99.90
16966;DHT22;8599;47.852;12.070;2022-07-04T03:42:56;20.40;99.90
16966;DHT22;8599;47.852;12.070;2022-07-04T03:45:23;20.50;99.90
16966;DHT22;8599;47.852;12.070;2022-07-04T03:47:50;20.50;99.90
16966;DHT22;8599;47.852;12.070;2022-07-04T03:50:18;20.40;99.90
16966;DHT22;8599;47.852;12.070;2022-07-04T03:52:45;20.40;99.90
16966;DHT22;8599;47.852;12.070;2022-07-04T03:55:12;20.40;99.90
16966;DHT22;8599;47.852;12.070;2022-07-04T03:57:40;20.50;99.90
16966;DHT22;8599;47.852;12.070;2022-07-04T04:00:08;20.50;99.90
16966;DHT22;8599;47.852;12.070;2022-07-04T04:02:35;20.50;99.90
16966;DHT22;8599;47.852;12.070;2022-07-04T04:05:03;20.40;99.90
16966;DHT22;8599;47.852;12.070;2022-07-04T04:07:47;20.50;99.90
16966;DHT22;8599;47.852;12.070;2022-07-04T04:10:14;20.50;99.90
16966;DHT22;8599;47.852;12.070;2022-07-04T04:12:45;20.50;99.90
16966;DHT22;8599;47.852;12.070;2022-07-04T04:15:12;20.70;99.90
16966;DHT22;8599;47.852;12.070;2022-07-04T04:17:39;20.70;99.90
16966;DHT22;8599;47.852;12.070;2022-07-04T04:20:07;20.60;99.90
16966;DHT22;8599;47.852;12.070;2022-07-04T04:22:34;20.70;99.90
16966;DHT22;8599;47.852;12.070;2022-07-04T04:25:01;20.60;99.90
16966;DHT22;8599;47.852;12.070;2022-07-04T04:27:28;20.70;99.90
16966;DHT22;8599;47.852;12.070;2022-07-04T04:29:56;20.80;99.90
16966;DHT22;8599;47.852;12.070;2022-07-04T04:32:23;20.80;99.90
16966;DHT22;8599;47.852;12.070;2022-07-04T04:34:50;20.90;99.90
16966;DHT22;8599;47.852;12.070;2022-07-04T04:37:16;20.80;99.90
16966;DHT22;8599;47.852;12.070;2022-07-04T04:39:43;20.80;99.90
16966;DHT22;8599;47.852;12.070;2022-07-04T04:42:10;20.70;99.90
16966;DHT22;8599;47.852;12.070;2022-07-04T04:44:37;20.70;99.90
16966;DHT22;8599;47.852;12.070;2022-07-04T04:47:05;20.90;99.90
16966;DHT22;8599;47.852;12.070;2022-07-04T04:49:32;20.90;99.90
16966;DHT22;8599;47.852;12.070;2022-07-04T04:51:59;20.80;99.90
16966;DHT22;8599;47.852;12.070;2022-07-04T04:54:25;20.90;99.90
16966;DHT22;8599;47.852;12.070;2022-07-04T04:56:52;20.90;99.90
16966;DHT22;8599;47.852;12.070;2022-07-04T04:59:19;20.90;99.90
16966;DHT22;8599;47.852;12.070;2022-07-04T05:01:46;20.90;99.90
16966;DHT22;8599;47.852;12.070;2022-07-04T05:04:14;21.00;99.90
16966;DHT22;8599;47.852;12.070;2022-07-04T05:06:41;20.90;99.90
16966;DHT22;8599;47.852;12.070;2022-07-04T05:09:08;21.00;99.90
16966;DHT22;8599;47.852;12.070;2022-07-04T05:11:35;21.00;99.90
16966;DHT22;8599;47.852;12.070;2022-07-04T05:14:02;21.10;99.90
16966;DHT22;8599;47.852;12.070;2022-07-04T05:16:29;21.10;99.90
16966;DHT22;8599;47.852;12.070;2022-07-04T05:18:56;21.10;99.90
16966;DHT22;8599;47.852;12.070;2022-07-04T05:21:24;21.10;99.90
16966;DHT22;8599;47.852;12.070;2022-07-04T05:23:52;21.10;99.90
16966;DHT22;8599;47.852;12.070;2022-07-04T05:26:18;21.30;99.90
16966;DHT22;8599;47.852;12.070;2022-07-04T05:28:45;21.30;99.90
16966;DHT22;8599;47.852;12.070;2022-07-04T05:31:12;21.20;99.90
16966;DHT22;8599;47.852;12.070;2022-07-04T05:33:39;21.10;99.90
16966;DHT22;8599;47.852;12.070;2022-07-04T05:36:06;21.20;99.90
16966;DHT22;8599;47.852;12.070;2022-07-04T05:38:34;21.30;99.90
16966;DHT22;8599;47.852;12.070;2022-07-04T05:41:01;21.30;99.90
16966;DHT22;8599;47.852;12.070;2022-07-04T05:43:28;21.40;99.90
16966;DHT22;8599;47.852;12.070;2022-07-04T05:45:55;21.50;99.90
16966;DHT22;8599;47.852;12.070;2022-07-04T05:48:22;21.60;99.90
16966;DHT22;8599;47.852;12.070;2022-07-04T05:50:49;21.80;99.90
16966;DHT22;8599;47.852;12.070;2022-07-04T05:53:15;21.70;99.90
16966;DHT22;8599;47.852;12.070;2022-07-04T05:55:44;21.60;99.90
16966;DHT22;8599;47.852;12.070;2022-07-04T05:58:11;21.50;99.90
16966;DHT22;8599;47.852;12.070;2022-07-04T06:00:38;21.50;99.90
16966;DHT22;8599;47.852;12.070;2022-07-04T06:03:05;21.50;99.90
16966;DHT22;8599;47.852;12.070;2022-07-04T06:05:32;21.60;99.90
16966;DHT22;8599;47.852;12.070;2022-07-04T06:07:59;21.60;99.90
16966;DHT22;8599;47.852;12.070;2022-07-04T06:10:27;21.70;99.90
16966;DHT22;8599;47.852;12.070;2022-07-04T06:12:55;21.70;99.90
16966;DHT22;8599;47.852;12.070;2022-07-04T06:15:22;21.80;99.90
16966;DHT22;8599;47.852;12.070;2022-07-04T06:17:49;21.70;99.90
16966;DHT22;8599;47.852;12.070;2022-07-04T06:20:16;21.70;99.90
16966;DHT22;8599;47.852;12.070;2022-07-04T06:22:44;21.70;99.90
16966;DHT22;8599;47.852;12.070;2022-07-04T06:25:12;21.70;99.90
16966;DHT22;8599;47.852;12.070;2022-07-04T06:27:39;21.70;99.90
16966;DHT22;8599;47.852;12.070;2022-07-04T06:30:09;21.80;99.90
16966;DHT22;8599;47.852;12.070;2022-07-04T06:32:44;21.80;99.90
16966;DHT22;8599;47.852;12.070;2022-07-04T06:35:12;21.80;99.90
16966;DHT22;8599;47.852;12.070;2022-07-04T06:37:57;21.80;99.90
16966;DHT22;8599;47.852;12.070;2022-07-04T06:40:24;21.80;99.90
16966;DHT22;8599;47.852;12.070;2022-07-04T06:42:51;21.90;99.90
16966;DHT22;8599;47.852;12.070;2022-07-04T06:45:19;22.10;99.90
16966;DHT22;8599;47.852;12.070;2022-07-04T06:47:46;22.30;99.90
16966;DHT22;8599;47.852;12.070;2022-07-04T06:50:13;22.50;99.90
16966;DHT22;8599;47.852;12.070;2022-07-04T06:52:39;22.70;99.90
16966;DHT22;8599;47.852;12.070;2022-07-04T06:55:07;22.70;99.90
16966;DHT22;8599;47.852;12.070;2022-07-04T06:57:34;22.80;99.90
16966;DHT22;8599;47.852;12.070;2022-07-04T07:00:02;22.90;99.90
16966;DHT22;8599;47.852;12.070;2022-07-04T07:02:33;23.10;99.90
16966;DHT22;8599;47.852;12.070;2022-07-04T07:05:00;23.10;99.90
16966;DHT22;8599;47.852;12.070;2022-07-04T07:07:27;23.10;99.90
16966;DHT22;8599;47.852;12.070;2022-07-04T07:09:55;23.00;99.90
16966;DHT22;8599;47.852;12.070;2022-07-04T07:12:22;23.00;99.90
16966;DHT22;8599;47.852;12.070;2022-07-04T07:14:49;22.90;99.90
16966;DHT22;8599;47.852;12.070;2022-07-04T07:17:16;23.00;99.90
16966;DHT22;8599;47.852;12.070;2022-07-04T07:19:45;23.00;99.90
16966;DHT22;8599;47.852;12.070;2022-07-04T07:22:12;22.90;99.90
16966;DHT22;8599;47.852;12.070;2022-07-04T07:24:39;23.00;99.90
16966;DHT22;8599;47.852;12.070;2022-07-04T07:27:07;23.00;99.90
16966;DHT22;8599;47.852;12.070;2022-07-04T07:29:34;23.00;99.90
16966;DHT22;8599;47.852;12.070;2022-07-04T07:32:01;22.90;99.90
16966;DHT22;8599;47.852;12.070;2022-07-04T07:34:29;22.80;99.90
16966;DHT22;8599;47.852;12.070;2022-07-04T07:36:57;22.80;99.90
16966;DHT22;8599;47.852;12.070;2022-07-04T07:39:24;22.70;99.90
16966;DHT22;8599;47.852;12.070;2022-07-04T07:41:51;22.60;99.90
16966;DHT22;8599;47.852;12.070;2022-07-04T07:44:17;22.60;99.90
16966;DHT22;8599;47.852;12.070;2022-07-04T07:46:44;22.60;99.90
16966;DHT22;8599;47.852;12.070;2022-07-04T07:49:11;22.60;99.90
16966;DHT22;8599;47.852;12.070;2022-07-04T07:51:38;22.60;99.90
16966;DHT22;8599;47.852;12.070;2022-07-04T07:54:06;22.50;99.90
16966;DHT22;8599;47.852;12.070;2022-07-04T07:56:33;22.50;99.90
16966;DHT22;8599;47.852;12.070;2022-07-04T07:59:00;22.50;99.90
16966;DHT22;8599;47.852;12.070;2022-07-04T08:01:27;22.60;99.90
16966;DHT22;8599;47.852;12.070;2022-07-04T08:03:54;22.70;99.90
16966;DHT22;8599;47.852;12.070;2022-07-04T08:06:38;22.70;99.90
16966;DHT22;8599;47.852;12.070;2022-07-04T08:09:07;22.70;99.90
16966;DHT22;8599;47.852;12.070;2022-07-04T08:11:34;22.80;99.90
16966;DHT22;8599;47.852;12.070;2022-07-04T08:14:01;22.90;99.90
16966;DHT22;8599;47.852;12.070;2022-07-04T08:16:27;22.90;99.90
16966;DHT22;8599;47.852;12.070;2022-07-04T08:18:54;23.10;99.90
16966;DHT22;8599;47.852;12.070;2022-07-04T08:21:21;23.10;99.90
16966;DHT22;8599;47.852;12.070;2022-07-04T08:23:48;23.10;99.90
16966;DHT22;8599;47.852;12.070;2022-07-04T08:26:16;23.20;99.90
16966;DHT22;8599;47.852;12.070;2022-07-04T08:28:43;23.50;99.90
16966;DHT22;8599;47.852;12.070;2022-07-04T08:31:10;23.50;99.90
16966;DHT22;8599;47.852;12.070;2022-07-04T08:33:37;23.50;99.90
16966;DHT22;8599;47.852;12.070;2022-07-04T08:36:04;23.60;99.90
16966;DHT22;8599;47.852;12.070;2022-07-04T08:38:31;23.50;99.90
16966;DHT22;8599;47.852;12.070;2022-07-04T08:40:59;23.40;99.90
16966;DHT22;8599;47.852;12.070;2022-07-04T08:43:30;23.40;99.90
16966;DHT22;8599;47.852;12.070;2022-07-04T08:45:59;23.30;99.90
16966;DHT22;8599;47.852;12.070;2022-07-04T08:48:30;23.30;99.90
16966;DHT22;8599;47.852;12.070;2022-07-04T08:51:03;23.00;99.90
16966;DHT22;8599;47.852;12.070;2022-07-04T08:53:31;23.00;99.90
16966;DHT22;8599;47.852;12.070;2022-07-04T08:56:00;23.00;99.90
16966;DHT22;8599;47.852;12.070;2022-07-04T08:58:47;22.90;99.90
16966;DHT22;8599;47.852;12.070;2022-07-04T09:01:15;22.70;99.90
16966;DHT22;8599;47.852;12.070;2022-07-04T09:03:44;22.70;99.90
16966;DHT22;8599;47.852;12.070;2022-07-04T09:06:12;22.70;99.90
16966;DHT22;8599;47.852;12.070;2022-07-04T09:08:39;22.60;99.90
16966;DHT22;8599;47.852;12.070;2022-07-04T09:11:07;22.60;99.90
16966;DHT22;8599;47.852;12.070;2022-07-04T09:13:34;22.50;99.90
16966;DHT22;8599;47.852;12.070;2022-07-04T09:16:03;22.30;99.90
16966;DHT22;8599;47.852;12.070;2022-07-04T09:18:31;22.30;99.90
16966;DHT22;8599;47.852;12.070;2022-07-04T09:21:00;22.10;99.90
16966;DHT22;8599;47.852;12.070;2022-07-04T09:23:29;22.00;99.90
16966;DHT22;8599;47.852;12.070;2022-07-04T09:26:11;22.00;99.90
16966;DHT22;8599;47.852;12.070;2022-07-04T09:28:39;22.00;99.90
16966;DHT22;8599;47.852;12.070;2022-07-04T09:31:19;22.00;99.90
16966;DHT22;8599;47.852;12.070;2022-07-04T09:33:51;22.10;99.90
16966;DHT22;8599;47.852;12.070;2022-07-04T09:36:21;22.20;99.90
16966;DHT22;8599;47.852;12.070;2022-07-04T09:39:09;22.20;99.90
16966;DHT22;8599;47.852;12.070;2022-07-04T09:41:55;22.20;99.90
16966;DHT22;8599;47.852;12.070;2022-07-04T09:44:23;22.20;99.90
16966;DHT22;8599;47.852;12.070;2022-07-04T09:46:51;22.40;99.90
16966;DHT22;8599;47.852;12.070;2022-07-04T09:49:19;22.40;99.90
16966;DHT22;8599;47.852;12.070;2022-07-04T09:51:50;22.60;99.90
16966;DHT22;8599;47.852;12.070;2022-07-04T09:54:20;22.80;99.90
16966;DHT22;8599;47.852;12.070;2022-07-04T09:56:49;22.80;99.90
16966;DHT22;8599;47.852;12.070;2022-07-04T09:59:16;22.90;99.90
16966;DHT22;8599;47.852;12.070;2022-07-04T10:01:43;23.00;99.90
16966;DHT22;8599;47.852;12.070;2022-07-04T10:04:12;23.00;99.90
16966;DHT22;8599;47.852;12.070;2022-07-04T10:06:40;23.00;99.90
16966;DHT22;8599;47.852;12.070;2022-07-04T10:09:09;22.90;99.90
16966;DHT22;8599;47.852;12.070;2022-07-04T10:11:37;23.00;99.90
16966;DHT22;8599;47.852;12.070;2022-07-04T10:14:06;23.10;99.90
16966;DHT22;8599;47.852;12.070;2022-07-04T10:16:34;23.20;99.90
16966;DHT22;8599;47.852;12.070;2022-07-04T10:19:01;23.30;99.90
16966;DHT22;8599;47.852;12.070;2022-07-04T10:21:30;23.40;99.90
16966;DHT22;8599;47.852;12.070;2022-07-04T10:23:57;23.50;99.90
16966;DHT22;8599;47.852;12.070;2022-07-04T10:26:24;23.60;99.90
16966;DHT22;8599;47.852;12.070;2022-07-04T10:28:51;23.70;99.90
16966;DHT22;8599;47.852;12.070;2022-07-04T10:31:20;23.80;99.90
16966;DHT22;8599;47.852;12.070;2022-07-04T10:33:48;23.90;99.90
16966;DHT22;8599;47.852;12.070;2022-07-04T10:36:16;23.90;99.90
16966;DHT22;8599;47.852;12.070;2022-07-04T10:38:49;23.80;99.90
16966;DHT22;8599;47.852;12.070;2022-07-04T10:41:17;23.90;99.90
16966;DHT22;8599;47.852;12.070;2022-07-04T10:44:01;23.80;99.90
16966;DHT22;8599;47.852;12.070;2022-07-04T10:46:42;23.80;99.90
16966;DHT22;8599;47.852;12.070;2022-07-04T10:49:19;23.80;99.90
16966;DHT22;8599;47.852;12.070;2022-07-04T10:51:47;23.60;99.90
16966;DHT22;8599;47.852;12.070;2022-07-04T10:54:17;23.50;99.90
16966;DHT22;8599;47.852;12.070;2022-07-04T10:56:47;23.50;99.90
16966;DHT22;8599;47.852;12.070;2022-07-04T10:59:18;23.50;99.90
16966;DHT22;8599;47.852;12.070;2022-07-04T11:01:50;23.50;99.90
16966;DHT22;8599;47.852;12.070;2022-07-04T11:04:44;23.50;99.90
16966;DHT22;8599;47.852;12.070;2022-07-04T11:07:11;23.50;99.90
16966;DHT22;8599;47.852;12.070;2022-07-04T11:09:39;23.50;99.90
16966;DHT22;8599;47.852;12.070;2022-07-04T11:12:08;23.50;99.90
16966;DHT22;8599;47.852;12.070;2022-07-04T11:14:37;23.60;99.90
16966;DHT22;8599;47.852;12.070;2022-07-04T11:17:05;23.90;99.90
16966;DHT22;8599;47.852;12.070;2022-07-04T11:19:33;24.20;99.90
16966;DHT22;8599;47.852;12.070;2022-07-04T11:22:00;24.40;99.90
16966;DHT22;8599;47.852;12.070;2022-07-04T11:24:28;24.50;99.90
16966;DHT22;8599;47.852;12.070;2022-07-04T11:26:56;24.50;99.90
16966;DHT22;8599;47.852;12.070;2022-07-04T11:29:23;24.50;99.90
16966;DHT22;8599;47.852;12.070;2022-07-04T11:31:51;24.70;99.90
16966;DHT22;8599;47.852;12.070;2022-07-04T11:34:18;24.80;99.90
16966;DHT22;8599;47.852;12.070;2022-07-04T11:36:47;24.90;99.90
16966;DHT22;8599;47.852;12.070;2022-07-04T11:39:15;24.70;99.90
16966;DHT22;8599;47.852;12.070;2022-07-04T11:41:47;24.80;99.90
16966;DHT22;8599;47.852;12.070;2022-07-04T11:44:34;24.80;99.90
16966;DHT22;8599;47.852;12.070;2022-07-04T11:47:21;24.80;99.90
16966;DHT22;8599;47.852;12.070;2022-07-04T11:49:50;24.90;99.90
16966;DHT22;8599;47.852;12.070;2022-07-04T11:52:19;24.90;99.90
16966;DHT22;8599;47.852;12.070;2022-07-04T11:54:47;25.10;99.90
16966;DHT22;8599;47.852;12.070;2022-07-04T11:57:17;25.40;99.90
16966;DHT22;8599;47.852;12.070;2022-07-04T11:59:57;25.40;99.90
16966;DHT22;8599;47.852;12.070;2022-07-04T12:02:26;25.50;99.90
16966;DHT22;8599;47.852;12.070;2022-07-04T12:04:54;25.40;99.90
16966;DHT22;8599;47.852;12.070;2022-07-04T12:07:23;25.30;99.90
16966;DHT22;8599;47.852;12.070;2022-07-04T12:09:51;25.40;99.90
16966;DHT22;8599;47.852;12.070;2022-07-04T12:12:19;25.50;99.90
16966;DHT22;8599;47.852;12.070;2022-07-04T12:14:59;25.50;99.90
16966;DHT22;8599;47.852;12.070;2022-07-04T12:17:33;25.40;99.90
16966;DHT22;8599;47.852;12.070;2022-07-04T12:20:02;25.70;99.90
16966;DHT22;8599;47.852;12.070;2022-07-04T12:22:32;25.90;99.90
16966;DHT22;8599;47.852;12.070;2022-07-04T12:25:00;26.00;99.90
16966;DHT22;8599;47.852;12.070;2022-07-04T12:27:28;26.30;99.90
16966;DHT22;8599;47.852;12.070;2022-07-04T12:29:58;26.30;99.90
16966;DHT22;8599;47.852;12.070;2022-07-04T12:32:43;26.40;99.90
16966;DHT22;8599;47.852;12.070;2022-07-04T12:35:31;26.40;99.90
16966;DHT22;8599;47.852;12.070;2022-07-04T12:38:02;26.70;99.90
16966;DHT22;8599;47.852;12.070;2022-07-04T12:40:30;26.70;99.90
16966;DHT22;8599;47.852;12.070;2022-07-04T12:42:57;26.90;99.90
16966;DHT22;8599;47.852;12.070;2022-07-04T12:45:25;27.30;99.90
16966;DHT22;8599;47.852;12.070;2022-07-04T12:47:52;27.50;99.90
16966;DHT22;8599;47.852;12.070;2022-07-04T12:50:25;27.50;99.90
16966;DHT22;8599;47.852;12.070;2022-07-04T12:52:53;27.60;99.90
16966;DHT22;8599;47.852;12.070;2022-07-04T12:55:19;27.50;99.90
16966;DHT22;8599;47.852;12.070;2022-07-04T12:57:46;27.70;99.90
16966;DHT22;8599;47.852;12.070;2022-07-04T13:00:13;27.60;99.90
16966;DHT22;8599;47.852;12.070;2022-07-04T13:02:41;27.70;99.90
16966;DHT22;8599;47.852;12.070;2022-07-04T13:05:08;27.90;99.90
16966;DHT22;8599;47.852;12.070;2022-07-04T13:07:35;28.20;99.90
16966;DHT22;8599;47.852;12.070;2022-07-04T13:10:03;28.20;99.90
16966;DHT22;8599;47.852;12.070;2022-07-04T13:12:30;28.10;99.90
16966;DHT22;8599;47.852;12.070;2022-07-04T13:14:58;28.20;99.90
16966;DHT22;8599;47.852;12.070;2022-07-04T13:17:25;28.30;99.90
16966;DHT22;8599;47.852;12.070;2022-07-04T13:19:53;28.30;99.90
16966;DHT22;8599;47.852;12.070;2022-07-04T13:22:22;28.40;99.90
16966;DHT22;8599;47.852;12.070;2022-07-04T13:24:49;28.80;99.90
16966;DHT22;8599;47.852;12.070;2022-07-04T13:27:17;29.00;98.50
16966;DHT22;8599;47.852;12.070;2022-07-04T13:29:44;29.10;96.40
16966;DHT22;8599;47.852;12.070;2022-07-04T13:32:11;28.80;95.90
16966;DHT22;8599;47.852;12.070;2022-07-04T13:34:38;29.00;96.30
16966;DHT22;8599;47.852;12.070;2022-07-04T13:37:06;29.00;96.20
16966;DHT22;8599;47.852;12.070;2022-07-04T13:39:33;29.00;96.50
16966;DHT22;8599;47.852;12.070;2022-07-04T13:42:00;28.70;95.70
16966;DHT22;8599;47.852;12.070;2022-07-04T13:44:27;28.50;96.20
16966;DHT22;8599;47.852;12.070;2022-07-04T13:46:54;28.30;96.50
16966;DHT22;8599;47.852;12.070;2022-07-04T13:49:21;28.30;97.00
16966;DHT22;8599;47.852;12.070;2022-07-04T13:51:48;28.20;97.20
16966;DHT22;8599;47.852;12.070;2022-07-04T13:54:16;28.40;97.50
16966;DHT22;8599;47.852;12.070;2022-07-04T13:56:44;28.50;97.60
16966;DHT22;8599;47.852;12.070;2022-07-04T13:59:11;28.50;96.20
16966;DHT22;8599;47.852;12.070;2022-07-04T14:01:38;28.30;95.40
16966;DHT22;8599;47.852;12.070;2022-07-04T14:04:06;28.30;97.90
16966;DHT22;8599;47.852;12.070;2022-07-04T14:06:32;28.40;98.50
16966;DHT22;8599;47.852;12.070;2022-07-04T14:08:59;28.60;99.00
16966;DHT22;8599;47.852;12.070;2022-07-04T14:11:28;28.90;99.00
16966;DHT22;8599;47.852;12.070;2022-07-04T14:13:55;28.90;97.70
16966;DHT22;8599;47.852;12.070;2022-07-04T14:16:22;29.20;98.30
16966;DHT22;8599;47.852;12.070;2022-07-04T14:18:48;29.70;97.50
16966;DHT22;8599;47.852;12.070;2022-07-04T14:21:15;30.20;95.80
16966;DHT22;8599;47.852;12.070;2022-07-04T14:23:43;30.60;96.00
16966;DHT22;8599;47.852;12.070;2022-07-04T14:26:12;30.60;95.10
16966;DHT22;8599;47.852;12.070;2022-07-04T14:28:42;31.00;93.30
16966;DHT22;8599;47.852;12.070;2022-07-04T14:31:11;31.40;92.80
16966;DHT22;8599;47.852;12.070;2022-07-04T14:33:38;31.60;93.30
16966;DHT22;8599;47.852;12.070;2022-07-04T14:36:05;31.60;93.10
16966;DHT22;8599;47.852;12.070;2022-07-04T14:38:33;31.80;92.30
16966;DHT22;8599;47.852;12.070;2022-07-04T14:41:00;32.00;91.20
16966;DHT22;8599;47.852;12.070;2022-07-04T14:43:36;31.90;91.30
16966;DHT22;8599;47.852;12.070;2022-07-04T14:46:05;32.20;90.60
16966;DHT22;8599;47.852;12.070;2022-07-04T14:48:32;31.90;92.10
16966;DHT22;8599;47.852;12.070;2022-07-04T14:50:59;32.00;92.00
16966;DHT22;8599;47.852;12.070;2022-07-04T14:53:26;32.00;92.30
16966;DHT22;8599;47.852;12.070;2022-07-04T14:55:53;31.80;92.40
16966;DHT22;8599;47.852;12.070;2022-07-04T14:58:20;32.00;92.40
16966;DHT22;8599;47.852;12.070;2022-07-04T15:00:47;32.20;91.80
16966;DHT22;8599;47.852;12.070;2022-07-04T15:03:15;32.30;91.80
16966;DHT22;8599;47.852;12.070;2022-07-04T15:05:43;32.30;90.30
16966;DHT22;8599;47.852;12.070;2022-07-04T15:08:09;31.80;90.80
16966;DHT22;8599;47.852;12.070;2022-07-04T15:10:36;31.90;91.20
16966;DHT22;8599;47.852;12.070;2022-07-04T15:13:03;32.00;91.20
16966;DHT22;8599;47.852;12.070;2022-07-04T15:15:30;32.30;90.40
16966;DHT22;8599;47.852;12.070;2022-07-04T15:17:57;32.40;89.50
16966;DHT22;8599;47.852;12.070;2022-07-04T15:20:25;32.50;87.90
16966;DHT22;8599;47.852;12.070;2022-07-04T15:23:09;32.60;89.30
16966;DHT22;8599;47.852;12.070;2022-07-04T15:25:54;31.80;90.00
16966;DHT22;8599;47.852;12.070;2022-07-04T15:28:20;31.50;91.00
16966;DHT22;8599;47.852;12.070;2022-07-04T15:30:47;31.10;90.70
16966;DHT22;8599;47.852;12.070;2022-07-04T15:33:14;30.50;91.40
16966;DHT22;8599;47.852;12.070;2022-07-04T15:35:43;29.80;92.40
16966;DHT22;8599;47.852;12.070;2022-07-04T15:38:11;29.60;92.70